Accueil
METAR-TAF:

METAR-TAF

Aéroports :

Base aérienne de Florennes

Florennes, Belgique

latitude: 50-14N, longitude: 004-39E, altitude: 279 m

Observation

Le bulletin a été fait il y a 38 minutes, à 22:25 UTC
Vent 3 kt de sud
Température 19°C
Humidité 64%
Pression 1019 hPa
Visibilité 10 km ou plus

METAR: EBFS 172225Z AUTO 17003KT 9999 NCD 19/12 Q1019 BLU

Heure: 01:03 (23:03 UTC)

Prévision

Le bulletin a été fait il y a 5 heures et 6 minutes, à 17:57 UTC
Prévision valable du 17 à 19 UTC au 18 à 07 UTC
Vent 9 kt de ouest/sud-ouest
Visibilité 10 km ou plus
Quelques nuages à une hauteur de 5000 ft
Temporairement
du 17 à 19 UTC au 18 à 01 UTC
Vent 5 kt de sud/sud-est
Temporairement
du 18 à 02 UTC au 18 à 05 UTC
Nuages fragmentés à une hauteur de 5000 ft
Nuages fragmentés à une hauteur de 7000 ft

TAF: EBFS 171757Z 1719/1807 25009KT 9999 FEW050 TEMPO 1719/1801 15005KT TEMPO 1802/1805 BKN050 BKN070

Observations et prévisions météorologiques de plus de 4000 aéroports (messages METAR et TAF).

Les stations disponibles sont représentées par des disques jaunes et rouges sur la carte.

Passer la souris dessus pour voir le nom de la station.

Cliquer dessus pour voir les observations et prévisions météorologiques.

Pour changer de carte: cliquez sur les boutons verts avec une croix noire pour zoomer, sur le bouton vert avec un tiret pour effectuer un zoom arrière, ou sur les flèches vertes pour les cartes adjacentes.


METAR-TAF: